• Join FlightAware (Why Join?)
  • Login
  • US Flag 
06:18PM EST


 

Airport Tracker/Info


-or-


 

Live Flight TrackerFlight Track Log ✈ ELO390 ✈ 24-Apr-2013 ✈ EDDT / TXL - EPWA / WAW

Flight Track Log - Related Links

Times and Time Zones

All times are in EDT time to prevent confusion due to time zone crossing. See the ELO390 flight status page for this flight to view local times or setup timezone preferences in your user account.

Time Position Orientation Groundspeed Altitude Reporting Facility
EDT Latitude Longitude Course Direction KTS MPH feet Rate Location/Type
02:12PM 52.5335 14.4108 92° East  Level Estimated
02:13PM 52.5294 14.5511 93° East  Level Estimated
02:14PM 52.5253 14.6913 93° East  Level Estimated
02:15PM 52.5209 14.8315 93° East  Level Estimated
02:16PM 52.5164 14.9718 93° East  Level Estimated
02:17PM 52.5117 15.1119 93° East  Level Estimated
02:18PM 52.5068 15.2521 93° East  Level Estimated
02:19PM 52.5018 15.3922 93° East  Level Estimated
02:20PM 52.4966 15.5323 93° East  Level Estimated
02:21PM 52.4913 15.6723 94° East  Level Estimated
02:22PM 52.4858 15.8123 94° East  Level Estimated
02:23PM 52.4801 15.9523 94° East  Level Estimated
02:24PM 52.4743 16.0922 94° East  Level Estimated
02:25PM 52.4683 16.2321 94° East  Level Estimated
02:26PM 52.4621 16.3720 94° East  Level Estimated
02:27PM 52.4557 16.5118 94° East  Level Estimated
02:28PM 52.4492 16.6516 94° East  Level Estimated
02:29PM 52.4426 16.7913 94° East  Level Estimated
02:30PM 52.4357 16.9310 95° East  Level Estimated
02:31PM 52.4287 17.0707 95° East  Level Estimated
02:32PM 52.4216 17.2103 95° East  Level Estimated
02:33PM 52.4142 17.3498 95° East  Level Estimated
02:34PM 52.4068 17.4893 95° East  Level Estimated
02:35PM 52.3991 17.6288 95° East  Level Estimated
02:36PM 52.3913 17.7682 95° East  Level Estimated
02:37PM 52.3833 17.9076 95° East  Level Estimated
02:38PM 52.3751 18.0469 95° East  Level Estimated
02:39PM 52.3668 18.1862 96° East  Level Estimated
02:40PM 52.3584 18.3254 96° East  Level Estimated
02:41PM 52.3497 18.4645 96° East  Level Estimated
02:42PM 52.3409 18.6036 96° East  Level Estimated
02:43PM 52.3320 18.7427 96° East  Level Estimated
02:44PM 52.3228 18.8817 96° East  Level Estimated
02:45PM 52.3135 19.0206 96° East  Level Estimated
02:46PM 52.3041 19.1595 96° East  Level Estimated
02:47PM 52.2945 19.2983 96° East  Level Estimated
02:48PM 52.2847 19.4370 97° East  Level Estimated
02:49PM 52.2748 19.5757 97° East  Level Estimated
02:50PM 52.2647 19.7143 97° East  Level Estimated
02:51PM 52.2544 19.8529 97° East  Level Estimated
02:52PM 52.2440 19.9914 97° East  Level Estimated
02:53PM 52.2334 20.1298 97° East  Level Estimated
02:54PM 52.2226 20.2682 97° East  Level Estimated
02:55PM 52.2117 20.4065 97° East  Level Estimated
02:56PM 52.2006 20.5447 97° East  Level Estimated
02:57PM 52.1894 20.6829 98° East  Level Estimated
02:58PM 52.1780 20.8210 98° East  Level Estimated
02:59PM 52.1664 20.9590 98° East  Level Estimated
03:00PM 52.1657 20.9671 98° East  Level Estimated
03:01PM 52.1657 20.9671 90° East  Level Estimated
03:02PM 52.1657 20.9671 90° East  Level Estimated
03:03PM 52.1657 20.9671 90° East  Level Estimated
03:04PM 52.1657 20.9671 90° East  Level Estimated
03:05PM 52.1657 20.9671 90° East  Level Estimated
03:06PM 52.1657 20.9671 90° East  Level Estimated
03:07PM 52.1657 20.9671 90° East  Level Estimated
03:08PM 52.1657 20.9671 90° East  Level Estimated
03:09PM 52.1657 20.9671 90° East  Level Estimated
03:10PM 52.1657 20.9671 90° East  Level Estimated
03:11PM 52.1657 20.9671 90° East  Level Estimated
03:12PM 52.1657 20.9671 90° East  Level Estimated
03:13PM 52.1657 20.9671 90° East  Level Estimated
03:14PM 52.1657 20.9671 90° East  Level Estimated
03:15PM 52.1657 20.9671 90° East  Level Estimated